Aeroporto :
LOGIN :

Iscrizione | Disclaimer

   EN    FR    IT 

 










Sommario :    VFR   VFR Marginale   IFR   IFR Intensivo   IFR Molto Intensivo
Visibilità : 
Base nubi : 
>= 8 km
>= 3000ft
5 / 8 km
1000 / 3000 ft
1500m / 5 km
500 / 1000 ft
800 / 1500m
200 / 500 ft
< 800m
< 200 ft
Simboli :   Temporali  Nebbia  Neve Forte  Precipitazioni Forti  Vento > 20 kt
SIGMETs :   Varie  Temporali  Ghiacco  Turbolenza  Onda orograficha  Ceneri Vulcaniche






- Altitudine del aeroporto : 32 ft
- Codice IATA : LKZ


EGUL - RAF Lakenheath

ULTIMO METAR :
  • 061856Z AUTO 27013G20KT 9999 FEW021 SCT047 09/07 A2958 RMK AO2 RAE02DZB02E07RAB07E18DZB18E22 SLP020 P0000 T00920070 $

METARs OBSOLETI :
  • 061822Z AUTO 27013G22KT 9999 FEW027 SCT041 09/07 A2955 RMK AO2 RAE02DZB02E07RAB07E18DZB18E22 SLP010 $
  • 061756Z AUTO 26014KT 9999 -RA FEW014 SCT025 BKN031 OVC039 09/08 A2953 RMK AO2 SLP003 P0002 60017 T00920076 10130 20089 53017 $
  • 061656Z AUTO 29006KT 9999 RA OVC024 09/07 A2950 RMK AO2 RAB04E19DZB19E22RAB22 SLP993 P0015 T00900074 $

TAF TAF EGUL
Valido dal 06 a 13 ore il 07 a 19 ore UTC


061300Z 0613/0719 22015G25KT 9999 BKN020 QNH2949INS
TEMPO 0613/0617 BKN015
BECMG 0617/0618 27015G20KT 9000 -SHRA BKN010 QNH2961INS
BECMG 0621/0622 27015G20KT 9999 NSW BKN020 QNH2971INS
BECMG 0705/0706 25010G20KT 9999 SCT020 BKN040 QNH2985INS TX13/0613Z TN07/0706Z LAST NO AMDS AFT 0613 NEXT 0906



MetMap, La meteo Aeronautica in un colpo d'occhio ! - Copyright ORBIFLY Dicembre 2007 - Disclaimer

ORBIFLY MET'MAP TEAM :

Programmazione e sviluppo : Alexandra Zaïnal
Concezione : Baudouin d'Aumeries
Aiuto per la programmazione : Marc-Olivier Méhu
Supporto tecnico e logistico : Manuel Goepfert
Aiuto per la traduzione : Arnaldo La Scala

Contatto : metmap@orbifly.com




FONTI E CREDITI :

   NOAA